sensor_id;sensor_type;location;lat;lon;timestamp;P1;durP1;ratioP1;P2;durP2;ratioP2
37545;SDS011;23389;52.484;13.572;2023-04-09T00:00:42;39.58;;;27.00;;
37545;SDS011;23389;52.484;13.572;2023-04-09T00:03:07;39.50;;;27.60;;
37545;SDS011;23389;52.484;13.572;2023-04-09T00:05:32;40.33;;;28.08;;
37545;SDS011;23389;52.484;13.572;2023-04-09T00:07:57;40.92;;;28.02;;
37545;SDS011;23389;52.484;13.572;2023-04-09T00:10:22;41.53;;;29.25;;
37545;SDS011;23389;52.484;13.572;2023-04-09T00:12:47;42.97;;;29.13;;
37545;SDS011;23389;52.484;13.572;2023-04-09T00:15:13;43.35;;;30.10;;
37545;SDS011;23389;52.484;13.572;2023-04-09T00:17:38;42.10;;;30.33;;
37545;SDS011;23389;52.484;13.572;2023-04-09T00:20:03;41.78;;;30.10;;
37545;SDS011;23389;52.484;13.572;2023-04-09T00:22:29;43.15;;;30.35;;
37545;SDS011;23389;52.484;13.572;2023-04-09T00:24:54;42.03;;;28.75;;
37545;SDS011;23389;52.484;13.572;2023-04-09T00:27:19;40.50;;;27.42;;
37545;SDS011;23389;52.484;13.572;2023-04-09T00:29:44;43.60;;;28.95;;
37545;SDS011;23389;52.484;13.572;2023-04-09T00:32:11;42.70;;;28.02;;
37545;SDS011;23389;52.484;13.572;2023-04-09T00:34:36;43.83;;;28.92;;
37545;SDS011;23389;52.484;13.572;2023-04-09T00:37:02;42.63;;;29.45;;
37545;SDS011;23389;52.484;13.572;2023-04-09T00:39:27;44.92;;;30.75;;
37545;SDS011;23389;52.484;13.572;2023-04-09T00:41:56;41.72;;;28.77;;
37545;SDS011;23389;52.484;13.572;2023-04-09T00:44:22;43.40;;;30.23;;
37545;SDS011;23389;52.484;13.572;2023-04-09T00:46:47;45.40;;;29.13;;
37545;SDS011;23389;52.484;13.572;2023-04-09T00:49:12;41.50;;;26.90;;
37545;SDS011;23389;52.484;13.572;2023-04-09T00:51:38;39.55;;;27.42;;
37545;SDS011;23389;52.484;13.572;2023-04-09T00:54:03;41.05;;;28.83;;
37545;SDS011;23389;52.484;13.572;2023-04-09T00:56:28;37.25;;;26.17;;
37545;SDS011;23389;52.484;13.572;2023-04-09T00:58:53;38.97;;;26.58;;
37545;SDS011;23389;52.484;13.572;2023-04-09T01:01:19;40.92;;;27.10;;
37545;SDS011;23389;52.484;13.572;2023-04-09T01:03:44;43.33;;;28.33;;
37545;SDS011;23389;52.484;13.572;2023-04-09T01:06:14;42.83;;;27.50;;
37545;SDS011;23389;52.484;13.572;2023-04-09T01:08:48;38.45;;;26.27;;
37545;SDS011;23389;52.484;13.572;2023-04-09T01:11:30;43.08;;;27.42;;
37545;SDS011;23389;52.484;13.572;2023-04-09T01:14:07;43.55;;;28.88;;
37545;SDS011;23389;52.484;13.572;2023-04-09T01:16:36;42.53;;;28.23;;
37545;SDS011;23389;52.484;13.572;2023-04-09T01:19:03;45.38;;;29.05;;
37545;SDS011;23389;52.484;13.572;2023-04-09T01:21:31;43.35;;;28.98;;
37545;SDS011;23389;52.484;13.572;2023-04-09T01:29:22;44.30;;;28.73;;
37545;SDS011;23389;52.484;13.572;2023-04-09T01:31:47;40.53;;;27.60;;
37545;SDS011;23389;52.484;13.572;2023-04-09T01:34:13;41.47;;;28.88;;
37545;SDS011;23389;52.484;13.572;2023-04-09T01:36:39;45.35;;;30.77;;
37545;SDS011;23389;52.484;13.572;2023-04-09T01:39:05;42.40;;;28.77;;
37545;SDS011;23389;52.484;13.572;2023-04-09T01:41:31;43.60;;;29.90;;
37545;SDS011;23389;52.484;13.572;2023-04-09T01:43:56;47.00;;;29.75;;
37545;SDS011;23389;52.484;13.572;2023-04-09T01:46:25;43.92;;;31.25;;
37545;SDS011;23389;52.484;13.572;2023-04-09T01:48:51;47.22;;;30.50;;
37545;SDS011;23389;52.484;13.572;2023-04-09T01:51:16;46.92;;;31.83;;
37545;SDS011;23389;52.484;13.572;2023-04-09T01:53:41;45.63;;;30.23;;
37545;SDS011;23389;52.484;13.572;2023-04-09T01:56:07;47.95;;;31.33;;
37545;SDS011;23389;52.484;13.572;2023-04-09T01:58:32;45.40;;;30.45;;
37545;SDS011;23389;52.484;13.572;2023-04-09T02:01:04;47.80;;;31.13;;
37545;SDS011;23389;52.484;13.572;2023-04-09T02:03:32;43.05;;;29.38;;
37545;SDS011;23389;52.484;13.572;2023-04-09T02:06:12;44.65;;;29.55;;
37545;SDS011;23389;52.484;13.572;2023-04-09T02:08:39;44.50;;;29.23;;
37545;SDS011;23389;52.484;13.572;2023-04-09T02:11:06;44.85;;;28.40;;
37545;SDS011;23389;52.484;13.572;2023-04-09T02:13:32;41.72;;;26.95;;
37545;SDS011;23389;52.484;13.572;2023-04-09T02:15:58;40.40;;;28.75;;
37545;SDS011;23389;52.484;13.572;2023-04-09T02:18:24;42.72;;;28.67;;
37545;SDS011;23389;52.484;13.572;2023-04-09T02:20:51;41.90;;;28.83;;
37545;SDS011;23389;52.484;13.572;2023-04-09T02:23:16;44.55;;;29.45;;
37545;SDS011;23389;52.484;13.572;2023-04-09T02:25:42;44.07;;;29.17;;
37545;SDS011;23389;52.484;13.572;2023-04-09T02:28:07;44.17;;;29.73;;
37545;SDS011;23389;52.484;13.572;2023-04-09T02:30:32;43.10;;;29.23;;
37545;SDS011;23389;52.484;13.572;2023-04-09T02:32:57;40.20;;;28.08;;
37545;SDS011;23389;52.484;13.572;2023-04-09T02:35:23;44.47;;;29.40;;
37545;SDS011;23389;52.484;13.572;2023-04-09T02:37:48;49.55;;;31.10;;
37545;SDS011;23389;52.484;13.572;2023-04-09T02:40:13;44.27;;;29.83;;
37545;SDS011;23389;52.484;13.572;2023-04-09T02:42:38;46.15;;;30.15;;
37545;SDS011;23389;52.484;13.572;2023-04-09T02:45:04;44.10;;;28.92;;
37545;SDS011;23389;52.484;13.572;2023-04-09T02:47:29;43.20;;;28.63;;
37545;SDS011;23389;52.484;13.572;2023-04-09T02:49:54;45.85;;;29.85;;
37545;SDS011;23389;52.484;13.572;2023-04-09T02:52:19;43.53;;;29.88;;
37545;SDS011;23389;52.484;13.572;2023-04-09T02:54:48;43.85;;;29.45;;
37545;SDS011;23389;52.484;13.572;2023-04-09T02:57:13;46.95;;;29.42;;
37545;SDS011;23389;52.484;13.572;2023-04-09T02:59:38;47.08;;;30.27;;
37545;SDS011;23389;52.484;13.572;2023-04-09T03:02:04;42.42;;;29.33;;
37545;SDS011;23389;52.484;13.572;2023-04-09T03:04:29;41.08;;;28.40;;
37545;SDS011;23389;52.484;13.572;2023-04-09T03:06:54;47.92;;;30.13;;
37545;SDS011;23389;52.484;13.572;2023-04-09T03:09:19;44.60;;;29.73;;
37545;SDS011;23389;52.484;13.572;2023-04-09T03:11:45;46.22;;;30.02;;
37545;SDS011;23389;52.484;13.572;2023-04-09T03:14:10;48.08;;;31.48;;
37545;SDS011;23389;52.484;13.572;2023-04-09T03:16:35;43.97;;;29.02;;
37545;SDS011;23389;52.484;13.572;2023-04-09T03:19:00;47.33;;;30.45;;
37545;SDS011;23389;52.484;13.572;2023-04-09T03:21:25;46.45;;;30.55;;
37545;SDS011;23389;52.484;13.572;2023-04-09T03:23:51;45.58;;;30.23;;
37545;SDS011;23389;52.484;13.572;2023-04-09T03:26:16;46.05;;;29.88;;
37545;SDS011;23389;52.484;13.572;2023-04-09T03:28:41;47.42;;;30.50;;
37545;SDS011;23389;52.484;13.572;2023-04-09T03:31:06;46.88;;;31.90;;
37545;SDS011;23389;52.484;13.572;2023-04-09T03:33:31;45.70;;;30.85;;
37545;SDS011;23389;52.484;13.572;2023-04-09T03:35:56;47.95;;;32.53;;
37545;SDS011;23389;52.484;13.572;2023-04-09T03:38:21;47.65;;;31.35;;
37545;SDS011;23389;52.484;13.572;2023-04-09T03:40:47;48.95;;;31.65;;
37545;SDS011;23389;52.484;13.572;2023-04-09T03:43:12;49.33;;;32.10;;
37545;SDS011;23389;52.484;13.572;2023-04-09T03:45:37;48.22;;;31.38;;
37545;SDS011;23389;52.484;13.572;2023-04-09T03:48:02;50.72;;;32.85;;
37545;SDS011;23389;52.484;13.572;2023-04-09T03:50:27;47.67;;;32.97;;
37545;SDS011;23389;52.484;13.572;2023-04-09T03:52:52;48.27;;;33.00;;
37545;SDS011;23389;52.484;13.572;2023-04-09T03:55:17;50.13;;;32.50;;
37545;SDS011;23389;52.484;13.572;2023-04-09T03:57:42;50.10;;;33.25;;
37545;SDS011;23389;52.484;13.572;2023-04-09T04:00:08;49.08;;;32.90;;
37545;SDS011;23389;52.484;13.572;2023-04-09T04:02:33;51.55;;;33.20;;
37545;SDS011;23389;52.484;13.572;2023-04-09T04:04:58;49.33;;;33.20;;
37545;SDS011;23389;52.484;13.572;2023-04-09T04:07:24;49.05;;;31.60;;
37545;SDS011;23389;52.484;13.572;2023-04-09T04:09:49;47.17;;;31.77;;
37545;SDS011;23389;52.484;13.572;2023-04-09T04:12:14;44.72;;;29.65;;
37545;SDS011;23389;52.484;13.572;2023-04-09T04:14:39;47.85;;;31.30;;
37545;SDS011;23389;52.484;13.572;2023-04-09T04:17:05;51.60;;;32.92;;
37545;SDS011;23389;52.484;13.572;2023-04-09T04:19:30;47.50;;;31.52;;
37545;SDS011;23389;52.484;13.572;2023-04-09T04:21:55;47.78;;;32.72;;
37545;SDS011;23389;52.484;13.572;2023-04-09T04:24:20;47.10;;;32.78;;
37545;SDS011;23389;52.484;13.572;2023-04-09T04:26:45;47.20;;;29.80;;
37545;SDS011;23389;52.484;13.572;2023-04-09T04:29:10;45.63;;;30.77;;
37545;SDS011;23389;52.484;13.572;2023-04-09T04:31:35;44.85;;;29.05;;
37545;SDS011;23389;52.484;13.572;2023-04-09T04:34:00;42.17;;;28.63;;
37545;SDS011;23389;52.484;13.572;2023-04-09T04:36:26;42.78;;;29.77;;
37545;SDS011;23389;52.484;13.572;2023-04-09T04:38:51;43.03;;;27.63;;
37545;SDS011;23389;52.484;13.572;2023-04-09T04:41:16;42.80;;;27.53;;
37545;SDS011;23389;52.484;13.572;2023-04-09T04:43:41;43.50;;;28.88;;
37545;SDS011;23389;52.484;13.572;2023-04-09T04:46:06;41.50;;;27.17;;
37545;SDS011;23389;52.484;13.572;2023-04-09T04:48:31;40.70;;;26.50;;
37545;SDS011;23389;52.484;13.572;2023-04-09T04:50:57;40.78;;;27.38;;
37545;SDS011;23389;52.484;13.572;2023-04-09T04:53:23;40.38;;;26.58;;
37545;SDS011;23389;52.484;13.572;2023-04-09T04:55:48;40.55;;;26.67;;
37545;SDS011;23389;52.484;13.572;2023-04-09T04:58:13;45.27;;;29.07;;
37545;SDS011;23389;52.484;13.572;2023-04-09T05:00:38;47.27;;;29.87;;
37545;SDS011;23389;52.484;13.572;2023-04-09T05:03:03;47.97;;;30.87;;
37545;SDS011;23389;52.484;13.572;2023-04-09T05:05:28;46.83;;;30.90;;
37545;SDS011;23389;52.484;13.572;2023-04-09T05:07:54;46.33;;;30.58;;
37545;SDS011;23389;52.484;13.572;2023-04-09T05:10:19;49.38;;;31.67;;
37545;SDS011;23389;52.484;13.572;2023-04-09T05:12:44;46.65;;;31.90;;
37545;SDS011;23389;52.484;13.572;2023-04-09T05:15:10;52.00;;;33.17;;
37545;SDS011;23389;52.484;13.572;2023-04-09T05:17:35;50.23;;;33.73;;
37545;SDS011;23389;52.484;13.572;2023-04-09T05:20:00;48.47;;;33.17;;
37545;SDS011;23389;52.484;13.572;2023-04-09T05:22:25;50.10;;;33.08;;
37545;SDS011;23389;52.484;13.572;2023-04-09T05:24:51;50.65;;;32.67;;
37545;SDS011;23389;52.484;13.572;2023-04-09T05:27:16;48.40;;;32.03;;
37545;SDS011;23389;52.484;13.572;2023-04-09T05:29:43;47.30;;;31.42;;
37545;SDS011;23389;52.484;13.572;2023-04-09T05:32:08;49.47;;;32.33;;
37545;SDS011;23389;52.484;13.572;2023-04-09T05:34:33;52.60;;;32.00;;
37545;SDS011;23389;52.484;13.572;2023-04-09T05:36:58;49.88;;;32.53;;
37545;SDS011;23389;52.484;13.572;2023-04-09T05:39:24;51.53;;;32.50;;
37545;SDS011;23389;52.484;13.572;2023-04-09T05:41:49;48.63;;;31.58;;
37545;SDS011;23389;52.484;13.572;2023-04-09T05:44:16;46.83;;;30.95;;
37545;SDS011;23389;52.484;13.572;2023-04-09T05:46:41;41.75;;;28.77;;
37545;SDS011;23389;52.484;13.572;2023-04-09T05:49:06;50.95;;;30.63;;
37545;SDS011;23389;52.484;13.572;2023-04-09T05:51:31;50.92;;;31.00;;
37545;SDS011;23389;52.484;13.572;2023-04-09T05:53:56;47.90;;;29.55;;
37545;SDS011;23389;52.484;13.572;2023-04-09T05:56:21;51.30;;;30.38;;
37545;SDS011;23389;52.484;13.572;2023-04-09T05:58:47;52.05;;;31.85;;
37545;SDS011;23389;52.484;13.572;2023-04-09T06:01:12;47.60;;;31.35;;
37545;SDS011;23389;52.484;13.572;2023-04-09T06:03:37;48.72;;;31.38;;
37545;SDS011;23389;52.484;13.572;2023-04-09T06:06:03;52.33;;;32.77;;
37545;SDS011;23389;52.484;13.572;2023-04-09T06:08:28;49.97;;;32.10;;
37545;SDS011;23389;52.484;13.572;2023-04-09T06:10:53;50.17;;;32.25;;
37545;SDS011;23389;52.484;13.572;2023-04-09T06:13:18;60.03;;;34.50;;
37545;SDS011;23389;52.484;13.572;2023-04-09T06:15:43;54.60;;;33.07;;
37545;SDS011;23389;52.484;13.572;2023-04-09T06:18:08;53.58;;;32.95;;
37545;SDS011;23389;52.484;13.572;2023-04-09T06:20:33;55.23;;;34.97;;
37545;SDS011;23389;52.484;13.572;2023-04-09T06:22:59;53.60;;;34.75;;
37545;SDS011;23389;52.484;13.572;2023-04-09T06:25:24;52.17;;;34.40;;
37545;SDS011;23389;52.484;13.572;2023-04-09T06:27:49;56.13;;;35.47;;
37545;SDS011;23389;52.484;13.572;2023-04-09T06:30:14;51.33;;;34.25;;
37545;SDS011;23389;52.484;13.572;2023-04-09T06:32:39;57.92;;;34.65;;
37545;SDS011;23389;52.484;13.572;2023-04-09T06:35:05;55.13;;;35.25;;
37545;SDS011;23389;52.484;13.572;2023-04-09T06:37:32;54.38;;;34.33;;
37545;SDS011;23389;52.484;13.572;2023-04-09T06:39:57;55.38;;;34.53;;
37545;SDS011;23389;52.484;13.572;2023-04-09T06:42:22;55.47;;;34.28;;
37545;SDS011;23389;52.484;13.572;2023-04-09T06:44:47;54.20;;;33.72;;
37545;SDS011;23389;52.484;13.572;2023-04-09T06:47:12;53.17;;;33.20;;
37545;SDS011;23389;52.484;13.572;2023-04-09T06:49:37;57.40;;;35.38;;
37545;SDS011;23389;52.484;13.572;2023-04-09T06:52:03;52.90;;;33.97;;
37545;SDS011;23389;52.484;13.572;2023-04-09T06:54:28;52.38;;;32.38;;
37545;SDS011;23389;52.484;13.572;2023-04-09T06:56:53;58.55;;;35.78;;
37545;SDS011;23389;52.484;13.572;2023-04-09T06:59:18;51.75;;;34.10;;
37545;SDS011;23389;52.484;13.572;2023-04-09T07:01:44;56.42;;;33.45;;
37545;SDS011;23389;52.484;13.572;2023-04-09T07:04:09;55.47;;;34.13;;
37545;SDS011;23389;52.484;13.572;2023-04-09T07:06:34;56.65;;;36.25;;
37545;SDS011;23389;52.484;13.572;2023-04-09T07:08:59;52.03;;;33.38;;
37545;SDS011;23389;52.484;13.572;2023-04-09T07:11:24;50.00;;;32.72;;
37545;SDS011;23389;52.484;13.572;2023-04-09T07:13:51;50.60;;;33.03;;
37545;SDS011;23389;52.484;13.572;2023-04-09T07:16:16;49.83;;;31.02;;
37545;SDS011;23389;52.484;13.572;2023-04-09T07:18:41;48.63;;;31.50;;
37545;SDS011;23389;52.484;13.572;2023-04-09T07:21:06;51.67;;;30.80;;
37545;SDS011;23389;52.484;13.572;2023-04-09T07:23:34;49.35;;;32.50;;
37545;SDS011;23389;52.484;13.572;2023-04-09T07:26:02;52.27;;;32.40;;
37545;SDS011;23389;52.484;13.572;2023-04-09T07:28:27;52.83;;;32.17;;
37545;SDS011;23389;52.484;13.572;2023-04-09T07:30:53;46.43;;;31.17;;
37545;SDS011;23389;52.484;13.572;2023-04-09T07:33:18;46.10;;;30.10;;
37545;SDS011;23389;52.484;13.572;2023-04-09T07:35:43;44.47;;;29.75;;
37545;SDS011;23389;52.484;13.572;2023-04-09T07:38:08;50.72;;;32.13;;
37545;SDS011;23389;52.484;13.572;2023-04-09T07:40:33;49.97;;;31.20;;
37545;SDS011;23389;52.484;13.572;2023-04-09T07:42:59;45.42;;;28.20;;
37545;SDS011;23389;52.484;13.572;2023-04-09T07:45:24;43.83;;;29.00;;
37545;SDS011;23389;52.484;13.572;2023-04-09T07:47:49;45.65;;;29.42;;
37545;SDS011;23389;52.484;13.572;2023-04-09T07:50:14;45.20;;;31.00;;
37545;SDS011;23389;52.484;13.572;2023-04-09T07:52:40;42.47;;;29.67;;
37545;SDS011;23389;52.484;13.572;2023-04-09T07:55:05;47.42;;;30.90;;
37545;SDS011;23389;52.484;13.572;2023-04-09T07:57:31;49.37;;;30.43;;
37545;SDS011;23389;52.484;13.572;2023-04-09T07:59:56;47.30;;;31.25;;
37545;SDS011;23389;52.484;13.572;2023-04-09T08:02:22;42.90;;;28.55;;
37545;SDS011;23389;52.484;13.572;2023-04-09T08:04:47;46.65;;;30.02;;
37545;SDS011;23389;52.484;13.572;2023-04-09T08:07:13;48.58;;;31.70;;
37545;SDS011;23389;52.484;13.572;2023-04-09T08:09:38;50.47;;;31.23;;
37545;SDS011;23389;52.484;13.572;2023-04-09T08:12:03;46.40;;;30.25;;
37545;SDS011;23389;52.484;13.572;2023-04-09T08:14:28;47.83;;;31.33;;
37545;SDS011;23389;52.484;13.572;2023-04-09T08:16:53;49.72;;;30.95;;
37545;SDS011;23389;52.484;13.572;2023-04-09T08:19:18;49.57;;;31.27;;
37545;SDS011;23389;52.484;13.572;2023-04-09T08:21:44;47.13;;;30.80;;
37545;SDS011;23389;52.484;13.572;2023-04-09T08:24:10;51.58;;;32.70;;
37545;SDS011;23389;52.484;13.572;2023-04-09T08:26:36;51.08;;;32.55;;
37545;SDS011;23389;52.484;13.572;2023-04-09T08:29:01;46.50;;;32.08;;
37545;SDS011;23389;52.484;13.572;2023-04-09T08:31:26;46.37;;;31.80;;
37545;SDS011;23389;52.484;13.572;2023-04-09T08:33:51;47.75;;;31.83;;
37545;SDS011;23389;52.484;13.572;2023-04-09T08:36:17;46.42;;;30.55;;
37545;SDS011;23389;52.484;13.572;2023-04-09T08:38:42;40.93;;;28.00;;
37545;SDS011;23389;52.484;13.572;2023-04-09T08:41:14;44.35;;;29.88;;
37545;SDS011;23389;52.484;13.572;2023-04-09T08:43:40;43.45;;;30.83;;
37545;SDS011;23389;52.484;13.572;2023-04-09T08:46:06;42.80;;;29.45;;
37545;SDS011;23389;52.484;13.572;2023-04-09T08:48:31;42.58;;;29.20;;
37545;SDS011;23389;52.484;13.572;2023-04-09T08:50:56;41.67;;;27.83;;
37545;SDS011;23389;52.484;13.572;2023-04-09T08:53:21;42.72;;;29.40;;
37545;SDS011;23389;52.484;13.572;2023-04-09T08:55:47;41.40;;;28.10;;
37545;SDS011;23389;52.484;13.572;2023-04-09T08:58:12;45.00;;;29.48;;
37545;SDS011;23389;52.484;13.572;2023-04-09T09:00:37;40.10;;;27.13;;
37545;SDS011;23389;52.484;13.572;2023-04-09T09:03:03;37.88;;;26.27;;
37545;SDS011;23389;52.484;13.572;2023-04-09T09:05:35;40.72;;;27.42;;
37545;SDS011;23389;52.484;13.572;2023-04-09T09:08:01;43.67;;;28.33;;
37545;SDS011;23389;52.484;13.572;2023-04-09T09:10:35;39.83;;;28.33;;
37545;SDS011;23389;52.484;13.572;2023-04-09T09:13:01;38.55;;;27.92;;
37545;SDS011;23389;52.484;13.572;2023-04-09T09:15:39;43.38;;;28.48;;
37545;SDS011;23389;52.484;13.572;2023-04-09T09:18:05;38.97;;;27.48;;
37545;SDS011;23389;52.484;13.572;2023-04-09T09:20:31;39.97;;;26.70;;
37545;SDS011;23389;52.484;13.572;2023-04-09T09:22:56;36.53;;;25.85;;
37545;SDS011;23389;52.484;13.572;2023-04-09T09:25:21;36.55;;;26.17;;
37545;SDS011;23389;52.484;13.572;2023-04-09T09:27:50;34.45;;;24.55;;
37545;SDS011;23389;52.484;13.572;2023-04-09T09:32:46;33.20;;;24.80;;
37545;SDS011;23389;52.484;13.572;2023-04-09T09:35:12;36.20;;;25.00;;
37545;SDS011;23389;52.484;13.572;2023-04-09T09:37:38;35.57;;;25.60;;
37545;SDS011;23389;52.484;13.572;2023-04-09T09:40:03;33.95;;;24.60;;
37545;SDS011;23389;52.484;13.572;2023-04-09T09:42:28;35.90;;;25.70;;
37545;SDS011;23389;52.484;13.572;2023-04-09T09:44:53;33.42;;;24.48;;
37545;SDS011;23389;52.484;13.572;2023-04-09T09:47:19;37.67;;;27.70;;
37545;SDS011;23389;52.484;13.572;2023-04-09T09:49:47;37.72;;;26.58;;
37545;SDS011;23389;52.484;13.572;2023-04-09T09:52:12;37.20;;;26.27;;
37545;SDS011;23389;52.484;13.572;2023-04-09T09:54:39;34.00;;;25.13;;
37545;SDS011;23389;52.484;13.572;2023-04-09T09:57:05;35.40;;;26.08;;
37545;SDS011;23389;52.484;13.572;2023-04-09T09:59:31;36.13;;;25.73;;
37545;SDS011;23389;52.484;13.572;2023-04-09T10:01:58;34.15;;;25.02;;
37545;SDS011;23389;52.484;13.572;2023-04-09T10:04:24;34.25;;;25.27;;
37545;SDS011;23389;52.484;13.572;2023-04-09T10:06:50;35.30;;;25.25;;
37545;SDS011;23389;52.484;13.572;2023-04-09T10:09:16;35.30;;;25.33;;
37545;SDS011;23389;52.484;13.572;2023-04-09T10:11:41;32.58;;;23.65;;
37545;SDS011;23389;52.484;13.572;2023-04-09T10:14:09;33.47;;;24.25;;
37545;SDS011;23389;52.484;13.572;2023-04-09T10:16:34;33.37;;;25.00;;
37545;SDS011;23389;52.484;13.572;2023-04-09T10:19:00;34.00;;;25.67;;
37545;SDS011;23389;52.484;13.572;2023-04-09T10:21:41;33.08;;;23.98;;
37545;SDS011;23389;52.484;13.572;2023-04-09T10:24:07;34.35;;;25.58;;
37545;SDS011;23389;52.484;13.572;2023-04-09T10:26:33;33.38;;;25.15;;
37545;SDS011;23389;52.484;13.572;2023-04-09T10:29:02;33.80;;;24.30;;
37545;SDS011;23389;52.484;13.572;2023-04-09T10:31:44;32.17;;;23.45;;
37545;SDS011;23389;52.484;13.572;2023-04-09T10:34:09;38.10;;;25.30;;
37545;SDS011;23389;52.484;13.572;2023-04-09T10:36:34;35.72;;;25.17;;
37545;SDS011;23389;52.484;13.572;2023-04-09T10:39:00;32.88;;;23.48;;
37545;SDS011;23389;52.484;13.572;2023-04-09T10:41:35;32.50;;;23.90;;
37545;SDS011;23389;52.484;13.572;2023-04-09T10:44:00;31.97;;;22.93;;
37545;SDS011;23389;52.484;13.572;2023-04-09T10:46:31;30.23;;;22.92;;
37545;SDS011;23389;52.484;13.572;2023-04-09T10:51:35;30.73;;;22.77;;
37545;SDS011;23389;52.484;13.572;2023-04-09T10:54:02;31.23;;;22.90;;
37545;SDS011;23389;52.484;13.572;2023-04-09T10:56:27;33.50;;;23.52;;
37545;SDS011;23389;52.484;13.572;2023-04-09T10:58:52;27.70;;;21.67;;
37545;SDS011;23389;52.484;13.572;2023-04-09T11:01:20;30.05;;;22.13;;
37545;SDS011;23389;52.484;13.572;2023-04-09T11:03:46;23.73;;;18.08;;
37545;SDS011;23389;52.484;13.572;2023-04-09T11:06:29;28.25;;;21.20;;
37545;SDS011;23389;52.484;13.572;2023-04-09T11:08:55;29.52;;;21.45;;
37545;SDS011;23389;52.484;13.572;2023-04-09T11:11:25;28.15;;;21.23;;
37545;SDS011;23389;52.484;13.572;2023-04-09T11:13:50;29.40;;;21.77;;
37545;SDS011;23389;52.484;13.572;2023-04-09T11:16:15;28.70;;;21.50;;
37545;SDS011;23389;52.484;13.572;2023-04-09T11:18:42;29.77;;;21.95;;
37545;SDS011;23389;52.484;13.572;2023-04-09T11:21:07;28.87;;;21.43;;
37545;SDS011;23389;52.484;13.572;2023-04-09T11:23:34;27.95;;;21.52;;
37545;SDS011;23389;52.484;13.572;2023-04-09T11:25:59;26.93;;;20.67;;
37545;SDS011;23389;52.484;13.572;2023-04-09T11:28:25;28.70;;;21.33;;
37545;SDS011;23389;52.484;13.572;2023-04-09T11:30:50;28.10;;;20.90;;
37545;SDS011;23389;52.484;13.572;2023-04-09T11:33:16;29.83;;;20.40;;
37545;SDS011;23389;52.484;13.572;2023-04-09T11:35:41;27.57;;;20.60;;
37545;SDS011;23389;52.484;13.572;2023-04-09T11:38:06;27.33;;;19.85;;
37545;SDS011;23389;52.484;13.572;2023-04-09T11:40:32;25.73;;;19.85;;
37545;SDS011;23389;52.484;13.572;2023-04-09T11:42:57;28.27;;;19.80;;
37545;SDS011;23389;52.484;13.572;2023-04-09T11:45:27;25.60;;;19.77;;
37545;SDS011;23389;52.484;13.572;2023-04-09T11:47:52;25.38;;;18.75;;
37545;SDS011;23389;52.484;13.572;2023-04-09T11:50:18;26.45;;;19.15;;
37545;SDS011;23389;52.484;13.572;2023-04-09T11:52:43;25.20;;;18.73;;
37545;SDS011;23389;52.484;13.572;2023-04-09T11:55:09;25.10;;;18.63;;
37545;SDS011;23389;52.484;13.572;2023-04-09T11:57:38;27.90;;;20.65;;
37545;SDS011;23389;52.484;13.572;2023-04-09T12:00:05;25.65;;;19.35;;
37545;SDS011;23389;52.484;13.572;2023-04-09T12:02:30;24.88;;;18.27;;
37545;SDS011;23389;52.484;13.572;2023-04-09T12:05:01;23.25;;;18.08;;
37545;SDS011;23389;52.484;13.572;2023-04-09T12:07:30;22.77;;;18.40;;
37545;SDS011;23389;52.484;13.572;2023-04-09T12:09:55;25.23;;;17.85;;
37545;SDS011;23389;52.484;13.572;2023-04-09T12:12:27;24.92;;;17.80;;
37545;SDS011;23389;52.484;13.572;2023-04-09T12:14:52;23.27;;;17.80;;
37545;SDS011;23389;52.484;13.572;2023-04-09T12:17:19;22.77;;;17.13;;
37545;SDS011;23389;52.484;13.572;2023-04-09T12:19:47;22.30;;;17.02;;
37545;SDS011;23389;52.484;13.572;2023-04-09T12:22:12;21.35;;;16.50;;
37545;SDS011;23389;52.484;13.572;2023-04-09T12:24:37;22.80;;;17.52;;
37545;SDS011;23389;52.484;13.572;2023-04-09T12:27:02;21.27;;;17.02;;
37545;SDS011;23389;52.484;13.572;2023-04-09T12:29:27;23.77;;;17.60;;
37545;SDS011;23389;52.484;13.572;2023-04-09T12:31:53;22.83;;;17.67;;
37545;SDS011;23389;52.484;13.572;2023-04-09T12:34:18;22.35;;;17.38;;
37545;SDS011;23389;52.484;13.572;2023-04-09T12:36:44;22.88;;;16.83;;
37545;SDS011;23389;52.484;13.572;2023-04-09T12:39:09;23.10;;;17.27;;
37545;SDS011;23389;52.484;13.572;2023-04-09T12:41:34;22.83;;;17.27;;
37545;SDS011;23389;52.484;13.572;2023-04-09T12:44:00;22.67;;;16.95;;
37545;SDS011;23389;52.484;13.572;2023-04-09T12:46:25;23.35;;;17.70;;
37545;SDS011;23389;52.484;13.572;2023-04-09T12:48:52;20.98;;;16.50;;
37545;SDS011;23389;52.484;13.572;2023-04-09T12:51:17;21.40;;;17.00;;
37545;SDS011;23389;52.484;13.572;2023-04-09T12:53:42;23.00;;;17.10;;
37545;SDS011;23389;52.484;13.572;2023-04-09T12:56:07;21.23;;;16.83;;
37545;SDS011;23389;52.484;13.572;2023-04-09T12:58:32;22.10;;;17.00;;
37545;SDS011;23389;52.484;13.572;2023-04-09T13:00:57;23.35;;;17.08;;
37545;SDS011;23389;52.484;13.572;2023-04-09T13:03:23;22.88;;;16.95;;
37545;SDS011;23389;52.484;13.572;2023-04-09T13:05:48;23.48;;;18.02;;
37545;SDS011;23389;52.484;13.572;2023-04-09T13:08:13;24.17;;;17.93;;
37545;SDS011;23389;52.484;13.572;2023-04-09T13:10:38;23.67;;;17.63;;
37545;SDS011;23389;52.484;13.572;2023-04-09T13:13:04;22.07;;;16.90;;
37545;SDS011;23389;52.484;13.572;2023-04-09T13:15:31;21.15;;;16.30;;
37545;SDS011;23389;52.484;13.572;2023-04-09T13:17:56;21.35;;;16.80;;
37545;SDS011;23389;52.484;13.572;2023-04-09T13:20:21;22.27;;;17.30;;
37545;SDS011;23389;52.484;13.572;2023-04-09T13:22:46;22.33;;;16.23;;
37545;SDS011;23389;52.484;13.572;2023-04-09T13:25:13;21.35;;;16.58;;
37545;SDS011;23389;52.484;13.572;2023-04-09T13:27:38;20.90;;;17.05;;
37545;SDS011;23389;52.484;13.572;2023-04-09T13:30:03;21.83;;;16.93;;
37545;SDS011;23389;52.484;13.572;2023-04-09T13:32:29;22.65;;;16.73;;
37545;SDS011;23389;52.484;13.572;2023-04-09T13:34:54;22.45;;;16.98;;
37545;SDS011;23389;52.484;13.572;2023-04-09T13:37:21;21.63;;;17.58;;
37545;SDS011;23389;52.484;13.572;2023-04-09T13:39:47;22.98;;;17.52;;
37545;SDS011;23389;52.484;13.572;2023-04-09T13:42:12;21.13;;;17.00;;
37545;SDS011;23389;52.484;13.572;2023-04-09T13:44:37;22.47;;;17.43;;
37545;SDS011;23389;52.484;13.572;2023-04-09T13:47:04;20.73;;;16.20;;
37545;SDS011;23389;52.484;13.572;2023-04-09T13:49:29;19.67;;;15.68;;
37545;SDS011;23389;52.484;13.572;2023-04-09T13:51:54;19.35;;;15.50;;
37545;SDS011;23389;52.484;13.572;2023-04-09T13:54:20;19.40;;;16.23;;
37545;SDS011;23389;52.484;13.572;2023-04-09T13:56:45;22.48;;;17.10;;
37545;SDS011;23389;52.484;13.572;2023-04-09T13:59:10;19.02;;;15.98;;
37545;SDS011;23389;52.484;13.572;2023-04-09T14:01:35;19.08;;;16.00;;
37545;SDS011;23389;52.484;13.572;2023-04-09T14:04:01;18.70;;;14.70;;
37545;SDS011;23389;52.484;13.572;2023-04-09T14:06:26;20.13;;;16.47;;
37545;SDS011;23389;52.484;13.572;2023-04-09T14:08:51;17.97;;;14.63;;
37545;SDS011;23389;52.484;13.572;2023-04-09T14:11:16;19.50;;;16.10;;